sensor_id;sensor_type;location;lat;lon;timestamp;P1;durP1;ratioP1;P2;durP2;ratioP2
1206;SDS011;593;53.184;8.216;2023-03-14T00:00:05;7.25;;;1.70;;
1206;SDS011;593;53.184;8.216;2023-03-14T00:02:40;10.65;;;2.35;;
1206;SDS011;593;53.184;8.216;2023-03-14T00:05:06;9.83;;;2.57;;
1206;SDS011;593;53.184;8.216;2023-03-14T00:07:35;8.05;;;1.80;;
1206;SDS011;593;53.184;8.216;2023-03-14T00:10:03;8.60;;;2.33;;
1206;SDS011;593;53.184;8.216;2023-03-14T00:12:31;7.93;;;1.67;;
1206;SDS011;593;53.184;8.216;2023-03-14T00:14:57;10.13;;;2.78;;
1206;SDS011;593;53.184;8.216;2023-03-14T00:17:22;12.30;;;1.57;;
1206;SDS011;593;53.184;8.216;2023-03-14T00:19:48;9.90;;;2.33;;
1206;SDS011;593;53.184;8.216;2023-03-14T00:22:17;9.35;;;2.40;;
1206;SDS011;593;53.184;8.216;2023-03-14T00:24:42;7.83;;;2.87;;
1206;SDS011;593;53.184;8.216;2023-03-14T00:27:08;8.40;;;2.40;;
1206;SDS011;593;53.184;8.216;2023-03-14T00:29:33;7.73;;;1.70;;
1206;SDS011;593;53.184;8.216;2023-03-14T00:31:58;8.97;;;2.20;;
1206;SDS011;593;53.184;8.216;2023-03-14T00:34:27;11.87;;;2.77;;
1206;SDS011;593;53.184;8.216;2023-03-14T00:36:54;12.10;;;2.73;;
1206;SDS011;593;53.184;8.216;2023-03-14T00:39:19;7.10;;;1.87;;
1206;SDS011;593;53.184;8.216;2023-03-14T00:41:44;6.50;;;2.63;;
1206;SDS011;593;53.184;8.216;2023-03-14T00:44:10;11.50;;;1.93;;
1206;SDS011;593;53.184;8.216;2023-03-14T00:46:35;8.30;;;2.20;;
1206;SDS011;593;53.184;8.216;2023-03-14T00:49:00;13.53;;;2.70;;
1206;SDS011;593;53.184;8.216;2023-03-14T00:51:26;8.23;;;1.57;;
1206;SDS011;593;53.184;8.216;2023-03-14T00:53:51;6.43;;;2.80;;
1206;SDS011;593;53.184;8.216;2023-03-14T00:56:16;10.77;;;3.10;;
1206;SDS011;593;53.184;8.216;2023-03-14T00:58:42;9.03;;;2.30;;
1206;SDS011;593;53.184;8.216;2023-03-14T01:01:12;6.00;;;1.63;;
1206;SDS011;593;53.184;8.216;2023-03-14T01:03:40;7.50;;;1.53;;
1206;SDS011;593;53.184;8.216;2023-03-14T01:06:12;6.40;;;2.00;;
1206;SDS011;593;53.184;8.216;2023-03-14T01:08:38;5.15;;;2.22;;
1206;SDS011;593;53.184;8.216;2023-03-14T01:11:07;4.00;;;2.40;;
1206;SDS011;593;53.184;8.216;2023-03-14T01:13:37;7.33;;;2.20;;
1206;SDS011;593;53.184;8.216;2023-03-14T01:16:04;5.93;;;2.22;;
1206;SDS011;593;53.184;8.216;2023-03-14T01:18:31;8.10;;;1.90;;
1206;SDS011;593;53.184;8.216;2023-03-14T01:20:58;5.97;;;2.00;;
1206;SDS011;593;53.184;8.216;2023-03-14T01:23:24;2.67;;;2.47;;
1206;SDS011;593;53.184;8.216;2023-03-14T01:25:49;6.20;;;2.40;;
1206;SDS011;593;53.184;8.216;2023-03-14T01:28:15;1.90;;;1.80;;
1206;SDS011;593;53.184;8.216;2023-03-14T01:30:40;3.17;;;2.50;;
1206;SDS011;593;53.184;8.216;2023-03-14T01:33:06;4.40;;;1.90;;
1206;SDS011;593;53.184;8.216;2023-03-14T01:35:31;4.60;;;2.30;;
1206;SDS011;593;53.184;8.216;2023-03-14T01:37:57;3.43;;;2.23;;
1206;SDS011;593;53.184;8.216;2023-03-14T01:40:22;4.13;;;2.00;;
1206;SDS011;593;53.184;8.216;2023-03-14T01:42:54;3.70;;;2.10;;
1206;SDS011;593;53.184;8.216;2023-03-14T01:48:23;2.20;;;1.73;;
1206;SDS011;593;53.184;8.216;2023-03-14T01:50:53;2.53;;;2.30;;
1206;SDS011;593;53.184;8.216;2023-03-14T01:53:19;6.20;;;2.10;;
1206;SDS011;593;53.184;8.216;2023-03-14T01:55:46;6.93;;;2.07;;
1206;SDS011;593;53.184;8.216;2023-03-14T01:58:13;4.70;;;1.70;;
1206;SDS011;593;53.184;8.216;2023-03-14T02:00:41;2.70;;;2.23;;
1206;SDS011;593;53.184;8.216;2023-03-14T02:03:09;3.20;;;2.50;;
1206;SDS011;593;53.184;8.216;2023-03-14T02:05:39;5.30;;;1.97;;
1206;SDS011;593;53.184;8.216;2023-03-14T02:08:07;4.55;;;2.28;;
1206;SDS011;593;53.184;8.216;2023-03-14T02:10:38;4.30;;;2.63;;
1206;SDS011;593;53.184;8.216;2023-03-14T02:13:06;3.20;;;2.13;;
1206;SDS011;593;53.184;8.216;2023-03-14T02:15:32;4.17;;;2.43;;
1206;SDS011;593;53.184;8.216;2023-03-14T02:17:58;13.30;;;2.87;;
1206;SDS011;593;53.184;8.216;2023-03-14T02:22:50;4.63;;;2.13;;
1206;SDS011;593;53.184;8.216;2023-03-14T02:28:06;4.30;;;2.80;;
1206;SDS011;593;53.184;8.216;2023-03-14T02:30:32;2.83;;;2.00;;
1206;SDS011;593;53.184;8.216;2023-03-14T02:32:58;4.53;;;2.90;;
1206;SDS011;593;53.184;8.216;2023-03-14T02:35:36;5.03;;;3.38;;
1206;SDS011;593;53.184;8.216;2023-03-14T02:38:23;2.10;;;1.93;;
1206;SDS011;593;53.184;8.216;2023-03-14T02:41:01;1.97;;;1.40;;
1206;SDS011;593;53.184;8.216;2023-03-14T02:43:26;5.77;;;1.50;;
1206;SDS011;593;53.184;8.216;2023-03-14T02:45:52;4.97;;;1.80;;
1206;SDS011;593;53.184;8.216;2023-03-14T02:48:25;4.88;;;0.90;;
1206;SDS011;593;53.184;8.216;2023-03-14T02:50:54;1.85;;;1.02;;
1206;SDS011;593;53.184;8.216;2023-03-14T02:53:23;3.77;;;0.97;;
1206;SDS011;593;53.184;8.216;2023-03-14T02:55:51;1.90;;;0.80;;
1206;SDS011;593;53.184;8.216;2023-03-14T02:58:17;3.47;;;0.80;;
1206;SDS011;593;53.184;8.216;2023-03-14T03:00:43;1.90;;;0.70;;
1206;SDS011;593;53.184;8.216;2023-03-14T03:03:09;3.23;;;1.13;;
1206;SDS011;593;53.184;8.216;2023-03-14T03:05:34;1.77;;;0.70;;
1206;SDS011;593;53.184;8.216;2023-03-14T03:08:00;3.00;;;2.43;;
1206;SDS011;593;53.184;8.216;2023-03-14T03:10:26;2.60;;;0.60;;
1206;SDS011;593;53.184;8.216;2023-03-14T03:12:52;5.43;;;0.70;;
1206;SDS011;593;53.184;8.216;2023-03-14T03:15:18;0.60;;;0.60;;
1206;SDS011;593;53.184;8.216;2023-03-14T03:17:43;2.33;;;1.10;;
1206;SDS011;593;53.184;8.216;2023-03-14T03:20:09;2.47;;;0.77;;
1206;SDS011;593;53.184;8.216;2023-03-14T03:22:35;2.17;;;0.90;;
1206;SDS011;593;53.184;8.216;2023-03-14T03:25:02;5.93;;;0.70;;
1206;SDS011;593;53.184;8.216;2023-03-14T03:27:31;0.70;;;0.60;;
1206;SDS011;593;53.184;8.216;2023-03-14T03:29:58;3.72;;;0.95;;
1206;SDS011;593;53.184;8.216;2023-03-14T03:32:24;2.80;;;0.80;;
1206;SDS011;593;53.184;8.216;2023-03-14T03:34:49;1.37;;;0.80;;
1206;SDS011;593;53.184;8.216;2023-03-14T03:37:15;2.30;;;0.87;;
1206;SDS011;593;53.184;8.216;2023-03-14T03:39:40;2.80;;;0.83;;
1206;SDS011;593;53.184;8.216;2023-03-14T03:42:06;1.73;;;1.00;;
1206;SDS011;593;53.184;8.216;2023-03-14T03:44:31;1.30;;;0.77;;
1206;SDS011;593;53.184;8.216;2023-03-14T03:46:56;2.20;;;1.00;;
1206;SDS011;593;53.184;8.216;2023-03-14T03:49:22;1.00;;;0.80;;
1206;SDS011;593;53.184;8.216;2023-03-14T03:51:47;1.50;;;0.97;;
1206;SDS011;593;53.184;8.216;2023-03-14T03:54:13;3.03;;;0.90;;
1206;SDS011;593;53.184;8.216;2023-03-14T03:56:38;4.10;;;1.03;;
1206;SDS011;593;53.184;8.216;2023-03-14T03:59:03;2.10;;;0.70;;
1206;SDS011;593;53.184;8.216;2023-03-14T04:01:29;5.40;;;1.23;;
1206;SDS011;593;53.184;8.216;2023-03-14T04:03:54;1.30;;;0.70;;
1206;SDS011;593;53.184;8.216;2023-03-14T04:06:19;5.47;;;0.87;;
1206;SDS011;593;53.184;8.216;2023-03-14T04:08:45;2.63;;;0.83;;
1206;SDS011;593;53.184;8.216;2023-03-14T04:11:10;1.03;;;0.93;;
1206;SDS011;593;53.184;8.216;2023-03-14T04:13:36;2.50;;;1.23;;
1206;SDS011;593;53.184;8.216;2023-03-14T04:16:01;2.97;;;1.27;;
1206;SDS011;593;53.184;8.216;2023-03-14T04:18:27;1.00;;;1.00;;
1206;SDS011;593;53.184;8.216;2023-03-14T04:20:53;2.00;;;1.20;;
1206;SDS011;593;53.184;8.216;2023-03-14T04:23:19;1.48;;;1.38;;
1206;SDS011;593;53.184;8.216;2023-03-14T04:25:45;1.30;;;1.20;;
1206;SDS011;593;53.184;8.216;2023-03-14T04:28:10;3.57;;;1.53;;
1206;SDS011;593;53.184;8.216;2023-03-14T04:30:35;2.47;;;1.87;;
1206;SDS011;593;53.184;8.216;2023-03-14T04:33:01;3.07;;;1.57;;
1206;SDS011;593;53.184;8.216;2023-03-14T04:35:27;5.50;;;1.60;;
1206;SDS011;593;53.184;8.216;2023-03-14T04:37:52;2.60;;;1.63;;
1206;SDS011;593;53.184;8.216;2023-03-14T04:40:18;1.93;;;1.20;;
1206;SDS011;593;53.184;8.216;2023-03-14T04:42:43;3.53;;;1.20;;
1206;SDS011;593;53.184;8.216;2023-03-14T04:45:09;2.47;;;1.60;;
1206;SDS011;593;53.184;8.216;2023-03-14T04:47:35;1.17;;;1.10;;
1206;SDS011;593;53.184;8.216;2023-03-14T04:50:00;3.03;;;1.00;;
1206;SDS011;593;53.184;8.216;2023-03-14T04:52:26;1.73;;;1.10;;
1206;SDS011;593;53.184;8.216;2023-03-14T04:54:52;1.90;;;1.30;;
1206;SDS011;593;53.184;8.216;2023-03-14T04:57:18;1.63;;;1.30;;
1206;SDS011;593;53.184;8.216;2023-03-14T04:59:43;1.93;;;1.07;;
1206;SDS011;593;53.184;8.216;2023-03-14T05:02:08;2.77;;;1.60;;
1206;SDS011;593;53.184;8.216;2023-03-14T05:04:34;2.40;;;1.00;;
1206;SDS011;593;53.184;8.216;2023-03-14T05:06:59;3.30;;;1.00;;
1206;SDS011;593;53.184;8.216;2023-03-14T05:09:25;1.40;;;1.23;;
1206;SDS011;593;53.184;8.216;2023-03-14T05:11:51;1.77;;;1.20;;
1206;SDS011;593;53.184;8.216;2023-03-14T05:14:16;2.30;;;1.00;;
1206;SDS011;593;53.184;8.216;2023-03-14T05:16:42;2.73;;;1.00;;
1206;SDS011;593;53.184;8.216;2023-03-14T05:19:07;4.23;;;0.90;;
1206;SDS011;593;53.184;8.216;2023-03-14T05:21:32;2.23;;;1.43;;
1206;SDS011;593;53.184;8.216;2023-03-14T05:23:58;2.60;;;1.03;;
1206;SDS011;593;53.184;8.216;2023-03-14T05:26:23;2.00;;;1.03;;
1206;SDS011;593;53.184;8.216;2023-03-14T05:28:49;3.23;;;1.10;;
1206;SDS011;593;53.184;8.216;2023-03-14T05:31:14;4.03;;;1.00;;
1206;SDS011;593;53.184;8.216;2023-03-14T05:33:39;2.20;;;1.87;;
1206;SDS011;593;53.184;8.216;2023-03-14T05:36:05;1.37;;;0.93;;
1206;SDS011;593;53.184;8.216;2023-03-14T05:38:31;1.80;;;1.10;;
1206;SDS011;593;53.184;8.216;2023-03-14T05:40:56;6.87;;;1.33;;
1206;SDS011;593;53.184;8.216;2023-03-14T05:43:21;3.60;;;0.83;;
1206;SDS011;593;53.184;8.216;2023-03-14T05:45:47;6.13;;;1.40;;
1206;SDS011;593;53.184;8.216;2023-03-14T05:48:12;2.77;;;0.80;;
1206;SDS011;593;53.184;8.216;2023-03-14T05:50:37;2.90;;;1.20;;
1206;SDS011;593;53.184;8.216;2023-03-14T05:53:03;3.77;;;1.00;;
1206;SDS011;593;53.184;8.216;2023-03-14T05:55:28;3.53;;;1.17;;
1206;SDS011;593;53.184;8.216;2023-03-14T05:57:54;2.50;;;1.20;;
1206;SDS011;593;53.184;8.216;2023-03-14T06:00:19;1.47;;;1.20;;
1206;SDS011;593;53.184;8.216;2023-03-14T06:02:45;2.95;;;1.50;;
1206;SDS011;593;53.184;8.216;2023-03-14T06:05:11;1.60;;;0.97;;
1206;SDS011;593;53.184;8.216;2023-03-14T06:07:36;1.10;;;0.90;;
1206;SDS011;593;53.184;8.216;2023-03-14T06:10:02;2.63;;;1.40;;
1206;SDS011;593;53.184;8.216;2023-03-14T06:12:28;3.65;;;1.25;;
1206;SDS011;593;53.184;8.216;2023-03-14T06:14:53;3.43;;;1.50;;
1206;SDS011;593;53.184;8.216;2023-03-14T06:17:18;1.90;;;1.50;;
1206;SDS011;593;53.184;8.216;2023-03-14T06:19:44;4.63;;;1.77;;
1206;SDS011;593;53.184;8.216;2023-03-14T06:22:09;4.00;;;1.40;;
1206;SDS011;593;53.184;8.216;2023-03-14T06:24:34;2.43;;;1.80;;
1206;SDS011;593;53.184;8.216;2023-03-14T06:27:00;2.63;;;1.10;;
1206;SDS011;593;53.184;8.216;2023-03-14T06:29:27;2.80;;;1.27;;
1206;SDS011;593;53.184;8.216;2023-03-14T06:31:52;2.20;;;1.47;;
1206;SDS011;593;53.184;8.216;2023-03-14T06:34:18;3.23;;;1.13;;
1206;SDS011;593;53.184;8.216;2023-03-14T06:36:43;5.93;;;1.50;;
1206;SDS011;593;53.184;8.216;2023-03-14T06:39:08;1.97;;;1.03;;
1206;SDS011;593;53.184;8.216;2023-03-14T06:41:34;2.83;;;1.33;;
1206;SDS011;593;53.184;8.216;2023-03-14T06:43:59;6.73;;;1.80;;
1206;SDS011;593;53.184;8.216;2023-03-14T06:46:24;2.73;;;1.43;;
1206;SDS011;593;53.184;8.216;2023-03-14T06:48:50;1.63;;;1.20;;
1206;SDS011;593;53.184;8.216;2023-03-14T06:51:15;1.73;;;1.33;;
1206;SDS011;593;53.184;8.216;2023-03-14T06:53:40;3.30;;;1.33;;
1206;SDS011;593;53.184;8.216;2023-03-14T06:56:06;2.33;;;1.07;;
1206;SDS011;593;53.184;8.216;2023-03-14T06:58:32;7.20;;;2.10;;
1206;SDS011;593;53.184;8.216;2023-03-14T07:00:57;3.20;;;1.90;;
1206;SDS011;593;53.184;8.216;2023-03-14T07:03:23;4.38;;;1.30;;
1206;SDS011;593;53.184;8.216;2023-03-14T07:05:49;4.43;;;1.33;;
1206;SDS011;593;53.184;8.216;2023-03-14T07:08:15;1.73;;;1.20;;
1206;SDS011;593;53.184;8.216;2023-03-14T07:10:40;3.13;;;1.30;;
1206;SDS011;593;53.184;8.216;2023-03-14T07:13:05;3.30;;;1.50;;
1206;SDS011;593;53.184;8.216;2023-03-14T07:15:31;3.30;;;1.33;;
1206;SDS011;593;53.184;8.216;2023-03-14T07:17:56;6.10;;;2.00;;
1206;SDS011;593;53.184;8.216;2023-03-14T07:20:21;1.53;;;1.17;;
1206;SDS011;593;53.184;8.216;2023-03-14T07:22:48;3.07;;;1.63;;
1206;SDS011;593;53.184;8.216;2023-03-14T07:25:16;5.57;;;1.80;;
1206;SDS011;593;53.184;8.216;2023-03-14T07:27:46;1.63;;;1.00;;
1206;SDS011;593;53.184;8.216;2023-03-14T07:30:13;2.13;;;1.60;;
1206;SDS011;593;53.184;8.216;2023-03-14T07:32:39;5.90;;;2.85;;
1206;SDS011;593;53.184;8.216;2023-03-14T07:35:04;3.47;;;1.10;;
1206;SDS011;593;53.184;8.216;2023-03-14T07:37:30;7.00;;;1.55;;
1206;SDS011;593;53.184;8.216;2023-03-14T07:39:55;2.90;;;1.13;;
1206;SDS011;593;53.184;8.216;2023-03-14T07:42:21;6.83;;;1.40;;
1206;SDS011;593;53.184;8.216;2023-03-14T07:44:46;2.50;;;1.10;;
1206;SDS011;593;53.184;8.216;2023-03-14T07:47:11;4.27;;;1.43;;
1206;SDS011;593;53.184;8.216;2023-03-14T07:49:37;2.23;;;1.10;;
1206;SDS011;593;53.184;8.216;2023-03-14T07:52:02;4.17;;;1.20;;
1206;SDS011;593;53.184;8.216;2023-03-14T07:54:27;5.07;;;1.50;;
1206;SDS011;593;53.184;8.216;2023-03-14T07:56:53;2.07;;;1.10;;
1206;SDS011;593;53.184;8.216;2023-03-14T07:59:19;3.53;;;1.33;;
1206;SDS011;593;53.184;8.216;2023-03-14T08:01:44;1.23;;;1.10;;
1206;SDS011;593;53.184;8.216;2023-03-14T08:04:10;2.20;;;1.43;;
1206;SDS011;593;53.184;8.216;2023-03-14T08:06:35;1.20;;;1.10;;
1206;SDS011;593;53.184;8.216;2023-03-14T08:09:02;3.20;;;1.23;;
1206;SDS011;593;53.184;8.216;2023-03-14T08:11:28;2.20;;;1.20;;
1206;SDS011;593;53.184;8.216;2023-03-14T08:13:53;5.53;;;1.77;;
1206;SDS011;593;53.184;8.216;2023-03-14T08:16:19;3.07;;;1.23;;
1206;SDS011;593;53.184;8.216;2023-03-14T08:18:45;2.27;;;1.20;;
1206;SDS011;593;53.184;8.216;2023-03-14T08:21:10;1.53;;;0.90;;
1206;SDS011;593;53.184;8.216;2023-03-14T08:23:36;3.55;;;1.00;;
1206;SDS011;593;53.184;8.216;2023-03-14T08:26:02;2.13;;;1.07;;
1206;SDS011;593;53.184;8.216;2023-03-14T08:28:27;4.87;;;1.37;;
1206;SDS011;593;53.184;8.216;2023-03-14T08:30:58;1.20;;;1.10;;
1206;SDS011;593;53.184;8.216;2023-03-14T08:33:23;4.07;;;0.90;;
1206;SDS011;593;53.184;8.216;2023-03-14T08:35:51;0.50;;;0.50;;
1206;SDS011;593;53.184;8.216;2023-03-14T08:38:17;1.25;;;0.60;;
1206;SDS011;593;53.184;8.216;2023-03-14T08:40:45;1.80;;;0.50;;
1206;SDS011;593;53.184;8.216;2023-03-14T08:43:12;0.70;;;0.50;;
1206;SDS011;593;53.184;8.216;2023-03-14T08:45:40;1.38;;;0.60;;
1206;SDS011;593;53.184;8.216;2023-03-14T08:48:05;1.97;;;0.63;;
1206;SDS011;593;53.184;8.216;2023-03-14T08:50:30;0.87;;;0.50;;
1206;SDS011;593;53.184;8.216;2023-03-14T08:52:56;1.80;;;0.63;;
1206;SDS011;593;53.184;8.216;2023-03-14T08:55:24;1.17;;;0.60;;
1206;SDS011;593;53.184;8.216;2023-03-14T08:57:52;1.02;;;0.50;;
1206;SDS011;593;53.184;8.216;2023-03-14T09:00:17;1.83;;;0.53;;
1206;SDS011;593;53.184;8.216;2023-03-14T09:02:43;2.40;;;0.50;;
1206;SDS011;593;53.184;8.216;2023-03-14T09:05:09;1.23;;;0.50;;
1206;SDS011;593;53.184;8.216;2023-03-14T09:07:35;0.70;;;0.40;;
1206;SDS011;593;53.184;8.216;2023-03-14T09:10:01;0.70;;;0.30;;
1206;SDS011;593;53.184;8.216;2023-03-14T09:12:26;1.00;;;0.40;;
1206;SDS011;593;53.184;8.216;2023-03-14T09:14:51;0.50;;;0.30;;
1206;SDS011;593;53.184;8.216;2023-03-14T09:17:17;1.00;;;0.40;;
1206;SDS011;593;53.184;8.216;2023-03-14T09:19:42;0.50;;;0.30;;
1206;SDS011;593;53.184;8.216;2023-03-14T09:22:08;0.70;;;0.37;;
1206;SDS011;593;53.184;8.216;2023-03-14T09:24:33;0.50;;;0.30;;
1206;SDS011;593;53.184;8.216;2023-03-14T09:26:58;0.93;;;0.50;;
1206;SDS011;593;53.184;8.216;2023-03-14T09:29:24;0.50;;;0.30;;
1206;SDS011;593;53.184;8.216;2023-03-14T09:31:49;0.83;;;0.40;;
1206;SDS011;593;53.184;8.216;2023-03-14T09:34:15;0.60;;;0.40;;
1206;SDS011;593;53.184;8.216;2023-03-14T09:36:40;0.53;;;0.40;;
1206;SDS011;593;53.184;8.216;2023-03-14T09:39:06;0.50;;;0.40;;
1206;SDS011;593;53.184;8.216;2023-03-14T09:41:36;1.30;;;0.40;;
1206;SDS011;593;53.184;8.216;2023-03-14T09:46:39;0.95;;;0.40;;
1206;SDS011;593;53.184;8.216;2023-03-14T09:49:12;1.40;;;0.40;;
1206;SDS011;593;53.184;8.216;2023-03-14T09:51:46;0.70;;;0.45;;
1206;SDS011;593;53.184;8.216;2023-03-14T09:54:37;0.50;;;0.30;;
1206;SDS011;593;53.184;8.216;2023-03-14T09:57:11;0.60;;;0.40;;
1206;SDS011;593;53.184;8.216;2023-03-14T09:59:41;0.75;;;0.50;;
1206;SDS011;593;53.184;8.216;2023-03-14T10:04:45;0.52;;;0.40;;
1206;SDS011;593;53.184;8.216;2023-03-14T10:07:16;0.60;;;0.40;;
1206;SDS011;593;53.184;8.216;2023-03-14T10:09:52;0.73;;;0.40;;
1206;SDS011;593;53.184;8.216;2023-03-14T10:12:18;0.60;;;0.40;;
1206;SDS011;593;53.184;8.216;2023-03-14T10:14:48;2.15;;;0.40;;
1206;SDS011;593;53.184;8.216;2023-03-14T10:17:16;1.95;;;0.50;;
1206;SDS011;593;53.184;8.216;2023-03-14T10:19:51;0.50;;;0.40;;
1206;SDS011;593;53.184;8.216;2023-03-14T10:22:24;2.17;;;0.60;;
1206;SDS011;593;53.184;8.216;2023-03-14T10:24:55;0.88;;;0.40;;
1206;SDS011;593;53.184;8.216;2023-03-14T10:27:28;0.80;;;0.80;;
1206;SDS011;593;53.184;8.216;2023-03-14T10:30:02;1.52;;;0.40;;
1206;SDS011;593;53.184;8.216;2023-03-14T10:32:34;3.10;;;0.50;;
1206;SDS011;593;53.184;8.216;2023-03-14T10:35:06;1.17;;;0.40;;
1206;SDS011;593;53.184;8.216;2023-03-14T10:37:51;0.80;;;0.60;;
1206;SDS011;593;53.184;8.216;2023-03-14T10:40:24;1.40;;;0.50;;
1206;SDS011;593;53.184;8.216;2023-03-14T10:42:53;2.03;;;0.80;;
1206;SDS011;593;53.184;8.216;2023-03-14T10:48:05;1.73;;;0.90;;
1206;SDS011;593;53.184;8.216;2023-03-14T10:50:47;1.92;;;0.70;;
1206;SDS011;593;53.184;8.216;2023-03-14T10:53:27;3.42;;;1.10;;
1206;SDS011;593;53.184;8.216;2023-03-14T10:55:59;1.60;;;0.60;;
1206;SDS011;593;53.184;8.216;2023-03-14T10:58:28;5.28;;;0.82;;
1206;SDS011;593;53.184;8.216;2023-03-14T11:01:11;1.95;;;0.57;;
1206;SDS011;593;53.184;8.216;2023-03-14T11:03:49;1.67;;;1.00;;
1206;SDS011;593;53.184;8.216;2023-03-14T11:11:32;5.07;;;0.70;;
1206;SDS011;593;53.184;8.216;2023-03-14T11:14:00;3.70;;;0.80;;
1206;SDS011;593;53.184;8.216;2023-03-14T11:16:50;3.50;;;1.10;;
1206;SDS011;593;53.184;8.216;2023-03-14T11:19:32;1.45;;;0.63;;
1206;SDS011;593;53.184;8.216;2023-03-14T11:22:16;6.05;;;0.95;;
1206;SDS011;593;53.184;8.216;2023-03-14T11:27:59;10.35;;;1.08;;
1206;SDS011;593;53.184;8.216;2023-03-14T11:30:45;2.05;;;1.00;;
1206;SDS011;593;53.184;8.216;2023-03-14T11:33:27;7.53;;;1.25;;
1206;SDS011;593;53.184;8.216;2023-03-14T11:36:03;7.93;;;1.50;;
1206;SDS011;593;53.184;8.216;2023-03-14T11:44:01;5.13;;;1.00;;
1206;SDS011;593;53.184;8.216;2023-03-14T11:46:39;2.90;;;0.93;;
1206;SDS011;593;53.184;8.216;2023-03-14T11:51:38;4.82;;;0.95;;
1206;SDS011;593;53.184;8.216;2023-03-14T11:56:51;8.38;;;1.35;;
1206;SDS011;593;53.184;8.216;2023-03-14T11:59:25;10.30;;;1.05;;
1206;SDS011;593;53.184;8.216;2023-03-14T12:02:00;10.63;;;1.20;;
1206;SDS011;593;53.184;8.216;2023-03-14T12:07:41;2.58;;;0.93;;
1206;SDS011;593;53.184;8.216;2023-03-14T12:10:35;4.30;;;1.10;;
1206;SDS011;593;53.184;8.216;2023-03-14T12:13:10;3.45;;;0.80;;
1206;SDS011;593;53.184;8.216;2023-03-14T12:15:39;6.57;;;0.90;;
1206;SDS011;593;53.184;8.216;2023-03-14T12:21:09;6.07;;;1.25;;
1206;SDS011;593;53.184;8.216;2023-03-14T12:26:12;6.93;;;1.27;;
1206;SDS011;593;53.184;8.216;2023-03-14T12:28:48;3.22;;;0.70;;
1206;SDS011;593;53.184;8.216;2023-03-14T12:31:38;6.68;;;0.63;;
1206;SDS011;593;53.184;8.216;2023-03-14T12:39:13;1.33;;;0.73;;
1206;SDS011;593;53.184;8.216;2023-03-14T12:44:46;5.47;;;0.70;;
1206;SDS011;593;53.184;8.216;2023-03-14T12:49:42;3.45;;;1.10;;
1206;SDS011;593;53.184;8.216;2023-03-14T12:52:21;6.82;;;1.25;;
1206;SDS011;593;53.184;8.216;2023-03-14T12:54:59;2.63;;;0.60;;
1206;SDS011;593;53.184;8.216;2023-03-14T12:57:50;6.07;;;0.98;;
1206;SDS011;593;53.184;8.216;2023-03-14T13:00:32;2.33;;;0.90;;
1206;SDS011;593;53.184;8.216;2023-03-14T13:03:12;2.80;;;0.80;;
1206;SDS011;593;53.184;8.216;2023-03-14T13:10:59;2.70;;;0.60;;
1206;SDS011;593;53.184;8.216;2023-03-14T13:13:27;1.10;;;0.50;;
1206;SDS011;593;53.184;8.216;2023-03-14T13:15:54;3.90;;;0.80;;
1206;SDS011;593;53.184;8.216;2023-03-14T13:21:02;2.78;;;1.25;;
1206;SDS011;593;53.184;8.216;2023-03-14T13:23:32;7.85;;;0.60;;
1206;SDS011;593;53.184;8.216;2023-03-14T13:25:59;5.85;;;1.05;;
1206;SDS011;593;53.184;8.216;2023-03-14T13:28:26;2.55;;;0.80;;
1206;SDS011;593;53.184;8.216;2023-03-14T13:30:57;1.55;;;0.77;;
1206;SDS011;593;53.184;8.216;2023-03-14T13:33:25;2.58;;;0.60;;
1206;SDS011;593;53.184;8.216;2023-03-14T13:36:00;3.83;;;1.00;;
1206;SDS011;593;53.184;8.216;2023-03-14T13:38:29;1.90;;;0.63;;
1206;SDS011;593;53.184;8.216;2023-03-14T13:40:57;4.22;;;0.80;;
1206;SDS011;593;53.184;8.216;2023-03-14T13:43:40;1.73;;;0.60;;
1206;SDS011;593;53.184;8.216;2023-03-14T13:46:15;8.52;;;1.65;;
1206;SDS011;593;53.184;8.216;2023-03-14T13:48:49;7.93;;;1.00;;
1206;SDS011;593;53.184;8.216;2023-03-14T13:51:18;1.80;;;0.60;;
1206;SDS011;593;53.184;8.216;2023-03-14T13:56:19;4.00;;;0.90;;
1206;SDS011;593;53.184;8.216;2023-03-14T13:58:45;1.00;;;0.57;;
1206;SDS011;593;53.184;8.216;2023-03-14T14:01:13;3.55;;;1.25;;
1206;SDS011;593;53.184;8.216;2023-03-14T14:03:40;0.60;;;0.50;;
1206;SDS011;593;53.184;8.216;2023-03-14T14:06:09;4.63;;;1.10;;
1206;SDS011;593;53.184;8.216;2023-03-14T14:08:42;2.75;;;1.30;;
1206;SDS011;593;53.184;8.216;2023-03-14T14:11:08;6.87;;;0.83;;
1206;SDS011;593;53.184;8.216;2023-03-14T14:13:44;2.10;;;0.80;;
1206;SDS011;593;53.184;8.216;2023-03-14T14:16:09;1.87;;;0.70;;
1206;SDS011;593;53.184;8.216;2023-03-14T14:18:35;3.37;;;0.93;;
1206;SDS011;593;53.184;8.216;2023-03-14T14:21:01;1.73;;;0.60;;
1206;SDS011;593;53.184;8.216;2023-03-14T14:23:28;5.60;;;1.00;;
1206;SDS011;593;53.184;8.216;2023-03-14T14:25:55;4.82;;;0.90;;
1206;SDS011;593;53.184;8.216;2023-03-14T14:31:03;0.75;;;0.43;;
1206;SDS011;593;53.184;8.216;2023-03-14T14:33:38;1.88;;;0.57;;
1206;SDS011;593;53.184;8.216;2023-03-14T14:36:12;2.80;;;1.33;;
1206;SDS011;593;53.184;8.216;2023-03-14T14:38:48;0.90;;;0.60;;
1206;SDS011;593;53.184;8.216;2023-03-14T14:41:14;1.40;;;0.93;;
1206;SDS011;593;53.184;8.216;2023-03-14T14:43:39;1.20;;;0.50;;
1206;SDS011;593;53.184;8.216;2023-03-14T14:46:06;5.47;;;0.63;;
1206;SDS011;593;53.184;8.216;2023-03-14T14:48:35;7.97;;;1.00;;
1206;SDS011;593;53.184;8.216;2023-03-14T14:51:03;1.65;;;0.70;;
1206;SDS011;593;53.184;8.216;2023-03-14T14:53:40;2.45;;;0.63;;
1206;SDS011;593;53.184;8.216;2023-03-14T14:56:14;2.45;;;1.08;;
1206;SDS011;593;53.184;8.216;2023-03-14T14:58:43;2.30;;;0.70;;
1206;SDS011;593;53.184;8.216;2023-03-14T15:01:11;3.38;;;0.65;;
1206;SDS011;593;53.184;8.216;2023-03-14T15:03:42;4.53;;;0.80;;
1206;SDS011;593;53.184;8.216;2023-03-14T15:06:10;2.55;;;0.85;;
1206;SDS011;593;53.184;8.216;2023-03-14T15:08:38;3.35;;;1.15;;
1206;SDS011;593;53.184;8.216;2023-03-14T15:11:03;2.43;;;0.70;;
1206;SDS011;593;53.184;8.216;2023-03-14T15:13:29;4.05;;;0.90;;
1206;SDS011;593;53.184;8.216;2023-03-14T15:15:55;1.37;;;0.60;;
1206;SDS011;593;53.184;8.216;2023-03-14T15:18:23;4.18;;;1.30;;
1206;SDS011;593;53.184;8.216;2023-03-14T15:20:50;1.70;;;0.65;;
1206;SDS011;593;53.184;8.216;2023-03-14T15:23:17;8.43;;;0.87;;
1206;SDS011;593;53.184;8.216;2023-03-14T15:25:46;2.70;;;0.75;;
1206;SDS011;593;53.184;8.216;2023-03-14T15:28:21;2.38;;;0.55;;
1206;SDS011;593;53.184;8.216;2023-03-14T15:30:52;4.40;;;0.70;;
1206;SDS011;593;53.184;8.216;2023-03-14T15:33:19;3.53;;;0.80;;
1206;SDS011;593;53.184;8.216;2023-03-14T15:35:46;2.20;;;0.80;;
1206;SDS011;593;53.184;8.216;2023-03-14T15:38:13;5.40;;;0.70;;
1206;SDS011;593;53.184;8.216;2023-03-14T15:40:40;1.15;;;0.98;;
1206;SDS011;593;53.184;8.216;2023-03-14T15:43:06;1.95;;;0.50;;
1206;SDS011;593;53.184;8.216;2023-03-14T15:45:32;2.60;;;0.90;;
1206;SDS011;593;53.184;8.216;2023-03-14T15:47:57;2.40;;;0.70;;
1206;SDS011;593;53.184;8.216;2023-03-14T15:50:23;6.93;;;0.60;;
1206;SDS011;593;53.184;8.216;2023-03-14T15:52:50;5.85;;;0.98;;
1206;SDS011;593;53.184;8.216;2023-03-14T15:55:15;2.63;;;1.20;;
1206;SDS011;593;53.184;8.216;2023-03-14T15:57:42;1.70;;;0.63;;
1206;SDS011;593;53.184;8.216;2023-03-14T16:00:12;4.05;;;0.60;;
1206;SDS011;593;53.184;8.216;2023-03-14T16:02:40;1.55;;;0.60;;
1206;SDS011;593;53.184;8.216;2023-03-14T16:05:10;0.90;;;0.63;;
1206;SDS011;593;53.184;8.216;2023-03-14T16:07:37;4.32;;;1.15;;
1206;SDS011;593;53.184;8.216;2023-03-14T16:10:02;3.97;;;0.70;;
1206;SDS011;593;53.184;8.216;2023-03-14T16:12:29;4.13;;;0.80;;
1206;SDS011;593;53.184;8.216;2023-03-14T16:14:55;2.60;;;0.97;;
1206;SDS011;593;53.184;8.216;2023-03-14T16:17:20;0.93;;;0.50;;
1206;SDS011;593;53.184;8.216;2023-03-14T16:19:46;4.00;;;1.53;;
1206;SDS011;593;53.184;8.216;2023-03-14T16:22:11;3.50;;;0.73;;
1206;SDS011;593;53.184;8.216;2023-03-14T16:24:37;4.43;;;0.90;;
1206;SDS011;593;53.184;8.216;2023-03-14T16:27:02;2.90;;;0.80;;
1206;SDS011;593;53.184;8.216;2023-03-14T16:29:28;2.20;;;0.70;;
1206;SDS011;593;53.184;8.216;2023-03-14T16:31:54;6.15;;;0.70;;
1206;SDS011;593;53.184;8.216;2023-03-14T16:34:20;2.83;;;0.70;;
1206;SDS011;593;53.184;8.216;2023-03-14T16:36:45;4.20;;;0.90;;
1206;SDS011;593;53.184;8.216;2023-03-14T16:39:11;3.63;;;1.20;;
1206;SDS011;593;53.184;8.216;2023-03-14T16:41:37;6.13;;;0.80;;